Time;durP1;ratioP1;P1;durP2;ratioP2;P2;SDS_P1;SDS_P2;PMS_P1;PMS_P2;Temp;Humidity;BMP_temperature;BMP_pressure;BME280_temperature;BME280_humidity;BME280_pressure;Samples;Min_cycle;Max_cycle;Signal;HPM_P1;HPM_P2
2023/03/08 00:03:14;;;;;;;3.10;2.20;;;;;;;-1.14;100.00;94781.13;10371998;28;20227;-66
2023/03/08 00:08:15;;;;;;;3.83;2.20;;;;;;;-1.05;100.00;94770.06;10372291;28;20213;-66
2023/03/08 00:13:15;;;;;;;2.93;2.20;;;;;;;-1.08;100.00;94786.53;10372147;28;20232;-67
2023/03/08 00:18:16;;;;;;;3.83;2.50;;;;;;;-1.16;100.00;94790.75;10371921;28;20316;-67
2023/03/08 00:23:16;;;;;;;4.23;2.80;;;;;;;-1.16;100.00;94804.41;10371630;28;20604;-66
2023/03/08 00:28:16;;;;;;;5.53;3.43;;;;;;;-1.19;100.00;94803.84;10371413;28;20585;-66
2023/03/08 00:33:17;;;;;;;4.97;3.50;;;;;;;-1.13;100.00;94811.03;10371460;28;20614;-67
2023/03/08 00:38:18;;;;;;;4.50;3.63;;;;;;;-1.33;100.00;94813.53;10370918;28;20742;-67
2023/03/08 00:43:19;;;;;;;6.47;4.27;;;;;;;-1.25;100.00;94807.75;10369946;28;20242;-66
2023/03/08 00:48:20;;;;;;;4.50;3.60;;;;;;;-1.22;100.00;94809.25;10370397;28;20630;-67
2023/03/08 00:53:20;;;;;;;5.60;3.50;;;;;;;-1.44;100.00;94821.31;10370974;28;20243;-66
2023/03/08 00:58:21;;;;;;;5.83;3.20;;;;;;;-1.33;100.00;94825.56;10368715;28;20232;-66
2023/03/08 01:03:22;;;;;;;3.73;3.00;;;;;;;-1.19;100.00;94829.53;10369023;28;20181;-66
2023/03/08 01:08:24;;;;;;;4.43;3.10;;;;;;;-1.24;100.00;94821.41;10369012;28;20557;-65
2023/03/08 01:13:27;;;;;;;5.30;4.03;;;;;;;-1.15;100.00;94820.59;10385121;28;20408;-66
2023/03/08 01:18:27;;;;;;;5.23;3.13;;;;;;;-1.21;100.00;94831.41;10370007;28;20884;-67
2023/03/08 01:23:28;;;;;;;3.70;2.93;;;;;;;-1.18;100.00;94831.97;10369710;28;20193;-66
2023/03/08 01:28:28;;;;;;;2.63;2.40;;;;;;;-1.23;100.00;94839.25;10368443;28;20213;-66
2023/03/08 01:33:29;;;;;;;2.83;2.53;;;;;;;-1.36;100.00;94828.38;10370165;28;20212;-66
2023/03/08 01:38:29;;;;;;;2.67;2.40;;;;;;;-1.39;100.00;94831.22;10373873;28;20302;-65
2023/03/08 01:43:36;;;;;;;3.17;2.57;;;;;;;-1.50;100.00;94825.25;10378189;28;20193;-65
2023/03/08 01:48:41;;;;;;;3.57;2.60;;;;;;;-1.49;100.00;94829.41;10375933;28;20867;-65
2023/03/08 01:53:46;;;;;;;2.80;2.47;;;;;;;-1.54;100.00;94846.97;10376927;28;20192;-65
2023/03/08 01:58:48;;;;;;;2.73;2.33;;;;;;;-1.46;100.00;94842.00;10375178;28;20213;-65
2023/03/08 02:03:49;;;;;;;2.57;2.17;;;;;;;-1.56;100.00;94838.59;10392128;28;20185;-65
2023/03/08 02:08:53;;;;;;;3.00;2.40;;;;;;;-1.58;100.00;94847.38;10375535;28;20287;-65
2023/03/08 02:13:54;;;;;;;3.13;2.47;;;;;;;-1.55;100.00;94847.91;10391996;28;20235;-65
2023/03/08 02:19:13;;;;;;;3.17;2.60;;;;;;;-1.39;100.00;94836.34;10375162;28;20920;-65
2023/03/08 02:24:19;;;;;;;2.63;2.10;;;;;;;-1.38;100.00;94835.41;10374917;28;20835;-65
2023/03/08 02:29:19;;;;;;;2.80;2.47;;;;;;;-1.48;100.00;94835.38;10376111;28;20205;-64
2023/03/08 02:34:20;;;;;;;3.13;2.53;;;;;;;-1.47;100.00;94837.81;10374616;28;20243;-65
2023/03/08 02:39:20;;;;;;;2.93;2.60;;;;;;;-1.49;100.00;94818.34;10375651;28;20333;-64
2023/03/08 02:44:21;;;;;;;3.80;3.27;;;;;;;-1.42;100.00;94828.91;10375795;28;20189;-65
2023/03/08 02:49:21;;;;;;;3.60;3.23;;;;;;;-1.57;100.00;94826.69;10374867;28;20244;-65
2023/03/08 02:54:22;;;;;;;3.67;3.20;;;;;;;-1.37;100.00;94842.19;10375244;28;20212;-64
2023/03/08 02:59:22;;;;;;;5.07;3.57;;;;;;;-1.54;100.00;94836.72;10374412;28;20296;-64
2023/03/08 03:04:23;;;;;;;5.50;4.53;;;;;;;-1.50;100.00;94848.34;10373528;28;20189;-64
2023/03/08 03:09:23;;;;;;;4.50;3.97;;;;;;;-1.49;100.00;94847.41;10374618;28;20221;-64
2023/03/08 03:14:26;;;;;;;8.70;5.73;;;;;;;-1.55;100.00;94852.25;10374235;28;20216;-64
2023/03/08 03:19:27;;;;;;;6.23;4.40;;;;;;;-1.63;100.00;94858.03;10372983;28;20213;-64
2023/03/08 03:24:27;;;;;;;20.20;12.30;;;;;;;-1.49;100.00;94841.47;10374505;28;20189;-64
2023/03/08 03:29:31;;;;;;;40.00;20.37;;;;;;;-1.47;100.00;94848.09;10372015;28;20217;-65
2023/03/08 03:34:41;;;;;;;9.77;6.57;;;;;;;-1.68;100.00;94844.75;10371689;28;20298;-65
2023/03/08 03:39:42;;;;;;;9.93;7.03;;;;;;;-1.50;100.00;94855.22;10371619;28;20278;-64
2023/03/08 03:44:45;;;;;;;5.60;4.20;;;;;;;-1.35;100.00;94864.22;10388012;28;20273;-65
2023/03/08 03:49:50;;;;;;;4.10;3.60;;;;;;;-1.48;100.00;94867.00;10371463;28;20288;-63
2023/03/08 03:54:53;;;;;;;5.83;4.63;;;;;;;-1.46;100.00;94880.53;10371617;28;20217;-63
2023/03/08 03:59:54;;;;;;;5.70;4.13;;;;;;;-1.49;100.00;94870.50;10371387;28;20691;-65
2023/03/08 04:04:56;;;;;;;6.17;4.50;;;;;;;-1.47;100.00;94865.25;10397690;28;20181;-65
2023/03/08 04:10:01;;;;;;;5.80;4.53;;;;;;;-1.36;100.00;94864.34;10411464;28;20213;-65
2023/03/08 04:15:01;;;;;;;6.47;4.70;;;;;;;-1.32;100.00;94869.13;10411804;28;20240;-65
2023/03/08 04:20:05;;;;;;;5.57;4.40;;;;;;;-1.34;100.00;94872.75;10411507;28;20250;-64
2023/03/08 04:25:09;;;;;;;6.73;5.27;;;;;;;-1.41;100.00;94871.63;10411196;28;20181;-65
2023/03/08 04:30:17;;;;;;;6.87;5.50;;;;;;;-1.48;100.00;94876.47;10411080;28;20201;-65
2023/03/08 04:35:19;;;;;;;6.87;5.30;;;;;;;-1.56;100.00;94868.56;10410837;28;20227;-63
2023/03/08 04:40:23;;;;;;;10.47;8.20;;;;;;;-1.50;100.00;94880.91;10410847;28;20220;-65
2023/03/08 04:45:29;;;;;;;15.30;9.77;;;;;;;-1.57;100.00;94870.34;10410287;28;20549;-66
2023/03/08 04:50:33;;;;;;;9.27;6.87;;;;;;;-1.47;100.00;94860.94;10411493;28;20282;-65
2023/03/08 04:55:35;;;;;;;7.73;4.93;;;;;;;-1.57;100.00;94867.78;10409996;28;20645;-64
2023/03/08 05:00:36;;;;;;;7.73;5.27;;;;;;;-1.53;100.00;94871.72;10410501;28;20204;-63
2023/03/08 05:05:37;;;;;;;7.43;4.90;;;;;;;-1.52;100.00;94870.75;10410201;28;20192;-63
2023/03/08 05:10:38;;;;;;;9.00;5.67;;;;;;;-1.46;100.00;94874.59;10408534;28;20762;-63
2023/03/08 05:15:38;;;;;;;8.67;5.97;;;;;;;-1.31;100.00;94880.19;10411320;28;20216;-65
2023/03/08 05:20:38;;;;;;;9.57;6.90;;;;;;;-1.30;100.00;94879.25;10410947;28;20215;-63
2023/03/08 05:25:42;;;;;;;11.77;6.90;;;;;;;-1.22;100.00;94876.84;10409982;28;20271;-65
2023/03/08 05:30:44;;;;;;;8.57;5.87;;;;;;;-1.24;100.00;94872.78;10409768;28;20219;-65
2023/03/08 05:35:52;;;;;;;8.97;6.27;;;;;;;-1.54;100.00;94871.84;10409316;28;20292;-64
2023/03/08 05:40:52;;;;;;;10.93;7.47;;;;;;;-1.51;100.00;94872.41;10411005;28;20250;-64
2023/03/08 05:46:01;;;;;;;12.37;8.07;;;;;;;-1.59;100.00;94890.22;10409153;28;20226;-65
2023/03/08 05:51:05;;;;;;;12.27;7.77;;;;;;;-1.72;100.00;94894.72;10409069;28;20319;-64
2023/03/08 05:56:08;;;;;;;14.67;9.83;;;;;;;-1.44;100.00;94896.63;10410390;28;20217;-65
2023/03/08 06:01:15;;;;;;;12.57;8.60;;;;;;;-1.20;100.00;94903.22;10408722;28;20244;-65
2023/03/08 06:06:18;;;;;;;9.50;7.00;;;;;;;-1.06;100.00;94891.78;10408898;28;20256;-64
2023/03/08 06:11:19;;;;;;;11.23;8.27;;;;;;;-1.10;100.00;94890.41;10408741;28;20628;-64
2023/03/08 06:16:22;;;;;;;8.53;5.67;;;;;;;-0.98;100.00;94896.25;10409188;28;20223;-64
2023/03/08 06:21:23;;;;;;;10.60;6.97;;;;;;;-1.10;100.00;94903.28;10385260;28;20206;-63
2023/03/08 06:26:30;;;;;;;12.53;9.40;;;;;;;-1.24;100.00;94907.00;10375291;28;20186;-65
2023/03/08 06:31:31;;;;;;;30.83;19.20;;;;;;;-1.17;100.00;94905.53;10375238;28;20217;-64
2023/03/08 06:36:33;;;;;;;11.20;7.23;;;;;;;-1.05;100.00;94905.44;10375346;28;20306;-63
2023/03/08 06:41:34;;;;;;;14.03;10.00;;;;;;;-0.95;100.00;94885.72;10408727;28;20216;-66
2023/03/08 06:46:36;;;;;;;10.53;7.10;;;;;;;-0.83;100.00;94869.25;10391029;28;20182;-64
2023/03/08 06:51:38;;;;;;;9.97;6.57;;;;;;;-0.72;100.00;94866.56;10411795;22;20270;-67
2023/03/08 06:56:38;;;;;;;14.60;11.23;;;;;;;-0.92;100.00;94873.44;10373082;28;20216;-68
2023/03/08 07:01:40;;;;;;;10.03;7.07;;;;;;;-0.88;100.00;94875.75;10373620;28;20210;-67
2023/03/08 07:06:40;;;;;;;9.13;6.47;;;;;;;-0.65;100.00;94886.59;10375582;28;20240;-67
2023/03/08 07:11:41;;;;;;;14.57;9.47;;;;;;;-0.49;100.00;94888.66;10374759;28;20218;-67
2023/03/08 07:16:41;;;;;;;9.40;6.77;;;;;;;-0.47;100.00;94890.16;10375012;28;20224;-65
2023/03/08 07:21:43;;;;;;;6.97;5.27;;;;;;;-0.62;100.00;94876.06;10373711;28;20300;-66
2023/03/08 07:26:43;;;;;;;7.80;5.73;;;;;;;-0.46;100.00;94883.25;10373881;28;20690;-66
2023/03/08 07:31:43;;;;;;;6.97;5.23;;;;;;;-0.28;100.00;94875.66;10368497;28;20231;-67
2023/03/08 07:36:44;;;;;;;7.80;5.30;;;;;;;-0.11;100.00;94867.25;10371295;28;20241;-67
2023/03/08 07:41:44;;;;;;;6.43;4.50;;;;;;;0.03;100.00;94867.78;10372696;28;20264;-64
2023/03/08 07:46:45;;;;;;;5.43;4.10;;;;;;;0.09;100.00;94868.06;10371656;28;20276;-66
2023/03/08 07:51:47;;;;;;;4.70;4.20;;;;;;;0.10;100.00;94861.97;10370931;28;20239;-65
2023/03/08 07:56:48;;;;;;;6.53;4.33;;;;;;;-0.02;100.00;94863.06;10353700;28;20648;-66
2023/03/08 08:01:48;;;;;;;5.37;4.50;;;;;;;0.26;100.00;94873.44;10364722;28;20227;-67
2023/03/08 08:06:49;;;;;;;4.07;3.70;;;;;;;0.45;100.00;94857.94;10371581;28;20192;-67
2023/03/08 08:11:49;;;;;;;4.03;3.63;;;;;;;0.69;100.00;94861.81;10370934;28;20209;-68
2023/03/08 08:16:50;;;;;;;4.47;3.63;;;;;;;0.65;100.00;94843.22;10371164;28;20229;-68
2023/03/08 08:21:50;;;;;;;3.27;2.97;;;;;;;0.76;100.00;94844.03;10369720;28;20221;-68
2023/03/08 08:26:50;;;;;;;4.80;4.20;;;;;;;0.84;100.00;94839.78;10370913;28;20192;-68
2023/03/08 08:31:51;;;;;;;6.73;4.90;;;;;;;0.73;100.00;94834.00;10370264;28;20365;-69
2023/03/08 08:36:52;;;;;;;5.00;4.47;;;;;;;1.08;100.00;94828.09;10370116;28;20260;-68
2023/03/08 08:41:52;;;;;;;5.07;3.63;;;;;;;1.55;100.00;94821.97;10370177;28;20296;-68
2023/03/08 08:46:52;;;;;;;4.10;3.70;;;;;;;1.52;100.00;94814.53;10369696;28;20192;-68
2023/03/08 08:51:53;;;;;;;5.73;4.27;;;;;;;1.41;100.00;94805.25;10369629;28;20730;-68
2023/03/08 08:56:53;;;;;;;5.30;4.20;;;;;;;1.81;100.00;94798.78;10368076;28;20771;-67
2023/03/08 09:01:53;;;;;;;7.57;6.27;;;;;;;2.24;100.00;94815.22;10369661;28;20715;-66
2023/03/08 09:06:54;;;;;;;8.47;7.03;;;;;;;2.42;100.00;94786.75;10369115;28;20247;-67
2023/03/08 09:11:54;;;;;;;5.70;4.40;;;;;;;2.37;100.00;94770.88;10369742;28;20229;-66
2023/03/08 09:16:54;;;;;;;7.70;5.73;;;;;;;3.08;100.00;94765.47;10368672;28;20283;-66
2023/03/08 09:21:55;;;;;;;5.60;4.20;;;;;;;3.44;100.00;94755.66;10368868;28;20724;-65
2023/03/08 09:26:55;;;;;;;7.27;4.30;;;;;;;3.87;100.00;94738.16;10367982;28;20197;-66
2023/03/08 09:31:56;;;;;;;15.47;6.37;;;;;;;3.47;100.00;94715.72;10368735;28;20216;-66
2023/03/08 09:36:56;;;;;;;8.07;4.07;;;;;;;3.52;100.00;94705.66;10368852;28;20235;-65
2023/03/08 09:41:58;;;;;;;7.57;5.57;;;;;;;3.68;100.00;94707.47;10368233;28;20213;-65
2023/03/08 09:47:12;;;;;;;7.23;4.17;;;;;;;3.71;100.00;94694.97;10358215;28;20244;-63
2023/03/08 09:52:29;;;;;;;4.70;3.93;;;;;;;4.32;100.00;94676.38;10344288;28;20237;-62
2023/03/08 09:57:38;;;;;;;3.50;3.20;;;;;;;4.08;100.00;94646.16;10345057;28;20216;-64
2023/03/08 10:03:03;;;;;;;4.73;3.90;;;;;;;3.14;100.00;94666.53;10351177;28;20221;-62
2023/03/08 10:08:16;;;;;;;4.97;4.47;;;;;;;2.07;100.00;94686.97;10334417;28;20236;-63
2023/03/08 10:13:29;;;;;;;6.00;5.20;;;;;;;2.51;100.00;94697.13;10335466;28;20209;-64
2023/03/08 10:18:43;;;;;;;6.80;6.10;;;;;;;3.37;100.00;94687.41;10335052;28;20251;-65
2023/03/08 10:23:56;;;;;;;5.70;4.73;;;;;;;3.30;100.00;94674.28;10350061;28;20243;-64
2023/03/08 10:28:56;;;;;;;7.03;5.03;;;;;;;3.54;100.00;94677.84;10351756;28;20759;-65
2023/03/08 10:34:05;;;;;;;8.43;5.90;;;;;;;3.47;100.00;94659.56;10351926;28;20186;-66
2023/03/08 10:39:08;;;;;;;10.57;8.07;;;;;;;2.90;100.00;94659.56;10351491;28;20245;-64
2023/03/08 10:44:13;;;;;;;13.93;9.63;;;;;;;2.28;100.00;94660.72;10354725;28;20239;-64
2023/03/08 10:49:16;;;;;;;17.40;12.23;;;;;;;1.87;100.00;94673.44;10353487;28;20354;-65
2023/03/08 10:54:16;;;;;;;18.27;11.83;;;;;;;2.17;100.00;94658.41;10354079;28;20201;-64
2023/03/08 10:59:21;;;;;;;21.10;13.33;;;;;;;1.91;100.00;94654.09;10361468;28;20807;-65
2023/03/08 11:04:23;;;;;;;21.63;14.67;;;;;;;1.59;100.00;94645.22;10364136;28;20246;-65
2023/03/08 11:09:27;;;;;;;23.60;15.67;;;;;;;1.58;100.00;94648.78;10349554;28;20209;-63
2023/03/08 11:14:28;;;;;;;20.30;13.97;;;;;;;1.57;100.00;94631.66;10343564;28;20193;-64
2023/03/08 11:19:41;;;;;;;21.20;13.57;;;;;;;1.47;100.00;94615.47;10332446;28;20716;-63
2023/03/08 11:25:08;;;;;;;21.27;13.27;;;;;;;1.48;100.00;94604.19;10332925;28;20675;-62
2023/03/08 11:30:18;;;;;;;25.80;16.43;;;;;;;1.30;100.00;94597.31;10332268;28;20216;-65
2023/03/08 11:35:24;;;;;;;18.13;10.70;;;;;;;1.21;100.00;94580.16;10347343;28;20221;-65
2023/03/08 11:40:32;;;;;;;21.60;13.37;;;;;;;1.11;100.00;94564.81;10370855;28;20302;-64
2023/03/08 11:46:09;;;;;;;19.23;13.07;;;;;;;1.10;100.00;94550.28;10371495;28;20193;-63
2023/03/08 11:51:21;;;;;;;18.97;12.13;;;;;;;1.19;100.00;94538.25;10356755;28;20291;-59
2023/03/08 11:56:36;;;;;;;23.90;12.57;;;;;;;1.18;100.00;94531.47;10354004;28;20221;-64
2023/03/08 12:01:58;;;;;;;21.47;12.83;;;;;;;1.15;100.00;94524.88;10371392;28;20220;-59
2023/03/08 12:07:02;;;;;;;16.37;10.10;;;;;;;1.22;100.00;94520.69;10370336;28;20189;-64
2023/03/08 12:12:16;;;;;;;14.43;9.70;;;;;;;1.24;100.00;94520.53;10369927;28;20739;-63
2023/03/08 12:17:20;;;;;;;14.50;10.10;;;;;;;1.26;100.00;94516.06;10371156;28;20254;-64
2023/03/08 12:22:32;;;;;;;13.60;8.47;;;;;;;1.23;100.00;94506.06;10369377;28;20228;-64
2023/03/08 12:27:35;;;;;;;15.37;9.43;;;;;;;1.38;100.00;94508.88;10365289;28;20193;-65
2023/03/08 12:32:37;;;;;;;16.30;9.57;;;;;;;1.37;100.00;94502.88;10333801;28;20232;-64
2023/03/08 12:37:38;;;;;;;14.07;9.53;;;;;;;1.47;100.00;94495.03;10330052;28;20225;-60
2023/03/08 12:42:40;;;;;;;16.00;10.13;;;;;;;1.68;100.00;94496.38;10369593;28;20209;-62
2023/03/08 12:47:40;;;;;;;13.73;8.53;;;;;;;1.51;100.00;94492.94;10352836;28;20193;-62
2023/03/08 12:52:41;;;;;;;19.30;12.10;;;;;;;1.51;100.00;94486.00;10409652;23;20262;-61
2023/03/08 12:57:53;;;;;;;15.77;10.83;;;;;;;1.80;100.00;94484.00;10392649;28;20220;-62
2023/03/08 13:03:04;;;;;;;14.83;9.60;;;;;;;2.14;100.00;94484.72;10406261;28;20223;-61
2023/03/08 13:08:13;;;;;;;12.97;8.80;;;;;;;1.86;100.00;94478.22;10409325;28;20659;-61
2023/03/08 13:13:22;;;;;;;11.70;8.67;;;;;;;1.67;100.00;94485.25;10408968;28;20812;-61
2023/03/08 13:18:22;;;;;;;12.67;8.70;;;;;;;1.69;100.00;94480.75;10410194;28;20221;-62
2023/03/08 13:23:36;;;;;;;12.13;8.63;;;;;;;1.69;100.00;94480.75;10409473;28;20208;-61
2023/03/08 13:28:41;;;;;;;14.17;8.37;;;;;;;1.88;100.00;94482.22;10392292;28;20189;-62
2023/03/08 13:33:46;;;;;;;11.63;8.47;;;;;;;1.88;100.00;94458.19;10408862;28;20258;-62
2023/03/08 13:39:02;;;;;;;8.10;6.43;;;;;;;1.63;100.00;94457.34;10408850;28;20228;-62
2023/03/08 13:44:12;;;;;;;8.17;6.27;;;;;;;1.76;100.00;94452.53;10407520;28;20311;-61
2023/03/08 13:49:19;;;;;;;9.10;6.53;;;;;;;1.37;100.00;94447.91;10378951;28;20195;-61
2023/03/08 13:54:41;;;;;;;9.40;6.53;;;;;;;1.52;100.00;94427.50;10368256;28;20251;-61
2023/03/08 13:59:49;;;;;;;8.53;6.50;;;;;;;1.66;100.00;94413.97;10368253;28;20208;-61
2023/03/08 14:04:50;;;;;;;9.60;6.70;;;;;;;1.59;100.00;94405.22;10368110;28;20201;-59
2023/03/08 14:09:51;;;;;;;9.70;6.53;;;;;;;1.53;100.00;94401.53;10368052;28;20735;-61
2023/03/08 14:14:54;;;;;;;10.77;7.27;;;;;;;1.74;100.00;94393.31;10359943;28;20196;-63
2023/03/08 14:19:59;;;;;;;10.73;7.63;;;;;;;1.57;100.00;94379.59;10395321;28;20319;-62
2023/03/08 14:25:01;;;;;;;12.60;8.63;;;;;;;1.95;100.00;94363.66;10384411;28;20603;-62
2023/03/08 14:30:18;;;;;;;15.37;9.67;;;;;;;1.82;100.00;94369.28;10368755;28;20726;-60
2023/03/08 14:35:23;;;;;;;13.10;9.83;;;;;;;1.55;100.00;94360.88;10378914;28;20360;-64
2023/03/08 14:40:34;;;;;;;12.20;8.60;;;;;;;1.85;100.00;94350.88;10352963;28;20210;-64
2023/03/08 14:45:49;;;;;;;13.07;8.87;;;;;;;1.87;100.00;94342.97;10372579;28;20196;-63
2023/03/08 14:50:55;;;;;;;9.30;6.10;;;;;;;1.76;100.00;94332.03;10389795;28;20242;-63
2023/03/08 14:55:58;;;;;;;12.10;7.67;;;;;;;1.88;100.00;94334.28;10391387;28;20235;-63
2023/03/08 15:01:00;;;;;;;9.67;7.40;;;;;;;1.46;100.00;94338.63;10414992;28;20209;-64
2023/03/08 15:06:11;;;;;;;11.90;8.03;;;;;;;1.63;100.00;94331.69;10415449;28;20184;-64
2023/03/08 15:11:12;;;;;;;14.70;8.87;;;;;;;1.78;100.00;94317.19;10414810;28;20236;-60
2023/03/08 15:16:12;;;;;;;13.53;9.10;;;;;;;1.88;100.00;94313.63;10414732;28;20725;-62
2023/03/08 15:21:22;;;;;;;12.07;8.83;;;;;;;2.03;100.00;94298.28;10413746;28;20224;-62
2023/03/08 15:26:25;;;;;;;14.13;8.60;;;;;;;1.81;100.00;94302.34;10413890;28;20192;-60
2023/03/08 15:31:25;;;;;;;13.20;9.17;;;;;;;1.59;100.00;94308.00;10413825;28;20278;-61
2023/03/08 15:36:25;;;;;;;14.97;9.60;;;;;;;1.61;100.00;94287.19;10414156;28;20313;-61
2023/03/08 15:41:26;;;;;;;15.07;10.17;;;;;;;1.89;100.00;94292.03;10413182;28;20212;-61
2023/03/08 15:46:27;;;;;;;11.40;8.23;;;;;;;2.07;100.00;94287.47;10413960;28;20267;-61
2023/03/08 15:51:33;;;;;;;10.33;6.90;;;;;;;2.16;100.00;94279.69;10411718;28;20267;-61
2023/03/08 15:56:34;;;;;;;10.93;8.27;;;;;;;1.95;100.00;94276.66;10411840;28;20267;-62
2023/03/08 16:01:34;;;;;;;11.00;7.57;;;;;;;1.88;100.00;94277.50;10412642;28;20208;-62
2023/03/08 16:06:34;;;;;;;8.40;5.30;;;;;;;2.01;100.00;94271.84;10412522;28;20247;-61
2023/03/08 16:11:35;;;;;;;6.77;4.87;;;;;;;1.92;100.00;94265.88;10412765;28;20220;-60
2023/03/08 16:16:35;;;;;;;8.47;6.47;;;;;;;1.87;100.00;94273.28;10411979;28;20309;-62
2023/03/08 16:21:35;;;;;;;10.93;7.27;;;;;;;1.75;100.00;94278.78;10411963;28;20208;-62
2023/03/08 16:26:36;;;;;;;9.47;6.73;;;;;;;1.79;100.00;94258.63;10411186;28;20234;-62
2023/03/08 16:31:36;;;;;;;10.00;7.20;;;;;;;1.91;100.00;94261.66;10409623;28;20257;-62
2023/03/08 16:36:37;;;;;;;9.70;6.53;;;;;;;1.81;100.00;94256.69;10409620;28;20298;-62
2023/03/08 16:41:38;;;;;;;17.07;8.57;;;;;;;1.65;100.00;94262.66;10410872;28;20369;-62
2023/03/08 16:46:40;;;;;;;13.70;8.93;;;;;;;1.60;100.00;94278.63;10410816;28;20184;-61
2023/03/08 16:51:41;;;;;;;13.73;9.60;;;;;;;1.47;100.00;94270.59;10410156;28;20232;-63
2023/03/08 16:56:42;;;;;;;16.40;10.77;;;;;;;1.40;100.00;94270.41;10410124;28;20282;-62
2023/03/08 17:01:43;;;;;;;48.03;29.13;;;;;;;1.26;100.00;94273.63;10409832;28;20266;-60
2023/03/08 17:06:44;;;;;;;97.10;56.57;;;;;;;1.19;100.00;94293.28;10409062;28;20682;-62
2023/03/08 17:11:45;;;;;;;20.00;12.90;;;;;;;1.11;100.00;94277.81;10411239;28;20217;-61
2023/03/08 17:16:45;;;;;;;20.00;13.00;;;;;;;1.14;100.00;94295.53;10411069;28;20304;-62
2023/03/08 17:21:48;;;;;;;20.67;13.33;;;;;;;1.15;100.00;94292.78;10410853;28;20747;-62
2023/03/08 17:26:51;;;;;;;20.57;13.80;;;;;;;1.06;100.00;94273.91;10410449;28;20185;-60
2023/03/08 17:31:51;;;;;;;23.40;13.77;;;;;;;1.00;100.00;94274.56;10415062;28;20212;-63
2023/03/08 17:36:52;;;;;;;23.43;14.00;;;;;;;0.93;100.00;94286.44;10415491;28;20630;-61
2023/03/08 17:41:52;;;;;;;37.23;22.80;;;;;;;0.86;100.00;94278.53;10411610;28;20596;-62
2023/03/08 17:46:53;;;;;;;22.50;12.70;;;;;;;0.88;100.00;94270.66;10411179;28;20663;-63
2023/03/08 17:51:53;;;;;;;17.03;11.43;;;;;;;0.77;100.00;94274.34;10410534;28;20608;-63
2023/03/08 17:56:54;;;;;;;20.20;12.37;;;;;;;0.73;100.00;94283.34;10410510;28;20951;-59
2023/03/08 18:01:54;;;;;;;29.47;16.60;;;;;;;0.69;100.00;94274.31;10395518;28;20953;-59
2023/03/08 18:06:54;;;;;;;25.40;14.70;;;;;;;0.61;100.00;94287.16;10374971;28;20193;-62
2023/03/08 18:11:55;;;;;;;20.50;13.03;;;;;;;0.59;100.00;94300.19;10370086;28;20248;-63
2023/03/08 18:16:55;;;;;;;39.93;24.70;;;;;;;0.84;100.00;94295.94;10369611;28;20221;-63
2023/03/08 18:21:56;;;;;;;18.53;11.67;;;;;;;0.74;100.00;94303.00;10376427;28;20282;-63
2023/03/08 18:26:56;;;;;;;90.87;51.93;;;;;;;0.63;100.00;94288.63;10377501;28;20188;-63
2023/03/08 18:31:57;;;;;;;14.33;10.40;;;;;;;0.81;100.00;94295.44;10377054;28;20362;-63
2023/03/08 18:36:57;;;;;;;9.53;7.33;;;;;;;0.98;100.00;94291.13;10376435;28;20307;-62
2023/03/08 18:42:00;;;;;;;10.33;6.17;;;;;;;1.08;100.00;94291.81;10378509;28;20208;-63
2023/03/08 18:47:00;;;;;;;9.93;7.20;;;;;;;1.13;100.00;94294.72;10394720;28;20280;-63
2023/03/08 18:52:00;;;;;;;8.60;6.60;;;;;;;1.20;100.00;94289.75;10392098;28;20611;-63
2023/03/08 18:57:01;;;;;;;24.73;12.83;;;;;;;1.21;100.00;94294.75;10416954;23;20686;-64
2023/03/08 19:02:01;;;;;;;8.73;6.10;;;;;;;1.30;100.00;94290.38;10413952;28;20671;-65
2023/03/08 19:07:02;;;;;;;8.27;6.53;;;;;;;1.26;100.00;94291.69;10415604;28;20656;-65
2023/03/08 19:12:03;;;;;;;11.33;7.10;;;;;;;1.29;100.00;94287.97;10415684;28;20208;-65
2023/03/08 19:17:04;;;;;;;8.97;5.50;;;;;;;1.27;100.00;94289.91;10415308;28;20315;-65
2023/03/08 19:22:04;;;;;;;7.73;5.40;;;;;;;1.29;100.00;94278.47;10415541;28;20718;-63
2023/03/08 19:27:05;;;;;;;6.23;4.60;;;;;;;1.28;100.00;94266.53;10414787;28;20231;-65
2023/03/08 19:32:06;;;;;;;9.07;5.93;;;;;;;1.15;100.00;94279.06;10413679;28;20203;-64
2023/03/08 19:37:08;;;;;;;6.70;5.07;;;;;;;1.19;100.00;94276.03;10414288;28;20235;-65
2023/03/08 19:42:11;;;;;;;5.97;4.40;;;;;;;1.19;100.00;94281.19;10413992;28;20615;-66
2023/03/08 19:47:12;;;;;;;7.70;5.43;;;;;;;1.15;100.00;94279.06;10407929;28;21107;-64
2023/03/08 19:52:12;;;;;;;6.37;4.63;;;;;;;1.21;100.00;94276.69;10391983;28;20193;-64
2023/03/08 19:57:13;;;;;;;6.00;4.77;;;;;;;1.16;100.00;94272.97;10390599;28;20236;-66
2023/03/08 20:02:13;;;;;;;6.20;4.50;;;;;;;1.13;100.00;94270.72;10389928;28;20288;-65
2023/03/08 20:07:17;;;;;;;4.53;3.53;;;;;;;1.14;100.00;94272.31;10389732;28;20228;-65
2023/03/08 20:12:18;;;;;;;3.80;3.40;;;;;;;1.08;100.00;94275.53;10390583;28;20776;-63
2023/03/08 20:17:18;;;;;;;6.37;4.80;;;;;;;1.09;100.00;94274.56;10379008;28;20710;-66
2023/03/08 20:22:18;;;;;;;10.40;6.43;;;;;;;0.97;100.00;94274.88;10372103;28;20286;-66
2023/03/08 20:27:19;;;;;;;16.63;12.77;;;;;;;0.89;100.00;94285.16;10371580;28;20212;-66
2023/03/08 20:32:19;;;;;;;5.20;4.60;;;;;;;0.92;100.00;94289.19;10371538;28;20190;-66
2023/03/08 20:37:19;;;;;;;5.40;3.67;;;;;;;1.04;100.00;94286.16;10371051;28;20328;-65
2023/03/08 20:42:20;;;;;;;5.80;4.73;;;;;;;0.94;100.00;94297.59;10370521;28;20204;-65
2023/03/08 20:47:20;;;;;;;5.13;4.43;;;;;;;0.87;100.00;94297.38;10370974;28;20267;-66
2023/03/08 20:52:21;;;;;;;4.50;4.00;;;;;;;0.96;100.00;94304.19;10378125;28;20192;-66
2023/03/08 20:57:21;;;;;;;7.03;4.47;;;;;;;1.09;100.00;94297.75;10389250;28;20228;-65
2023/03/08 21:02:22;;;;;;;5.20;3.87;;;;;;;0.89;100.00;94296.28;10387558;28;20188;-64
2023/03/08 21:07:22;;;;;;;4.77;3.87;;;;;;;0.70;100.00;94301.69;10395896;28;20219;-66
2023/03/08 21:12:22;;;;;;;5.40;4.30;;;;;;;0.83;100.00;94299.47;10411070;28;20283;-66
2023/03/08 21:17:24;;;;;;;6.30;4.60;;;;;;;0.79;100.00;94285.28;10410913;28;20230;-63
2023/03/08 21:22:25;;;;;;;6.67;4.50;;;;;;;0.88;100.00;94281.75;10410723;28;20595;-65
2023/03/08 21:27:25;;;;;;;6.93;4.20;;;;;;;0.84;100.00;94282.25;10410227;28;20212;-65
2023/03/08 21:32:25;;;;;;;5.30;4.20;;;;;;;0.83;100.00;94278.88;10410551;28;20223;-63
2023/03/08 21:37:26;;;;;;;6.13;4.80;;;;;;;0.74;100.00;94279.81;10409740;28;20277;-64
2023/03/08 21:42:26;;;;;;;6.03;4.57;;;;;;;0.71;100.00;94277.53;10410050;28;20211;-63
2023/03/08 21:47:27;;;;;;;5.87;4.40;;;;;;;0.76;100.00;94271.91;10409968;28;20234;-64
2023/03/08 21:52:27;;;;;;;6.77;4.83;;;;;;;0.64;100.00;94267.03;10410568;28;20199;-65
2023/03/08 21:57:27;;;;;;;8.43;5.47;;;;;;;0.52;100.00;94271.69;10417732;28;20251;-65
2023/03/08 22:02:28;;;;;;;6.07;4.53;;;;;;;0.73;100.00;94267.06;10418387;28;20727;-65
2023/03/08 22:07:28;;;;;;;6.93;5.13;;;;;;;0.81;100.00;94259.34;10417991;28;20212;-64
2023/03/08 22:12:28;;;;;;;6.43;5.27;;;;;;;0.68;100.00;94262.41;10418061;28;20282;-63
2023/03/08 22:17:29;;;;;;;6.90;5.10;;;;;;;0.66;100.00;94251.44;10417886;28;20354;-64
2023/03/08 22:22:29;;;;;;;8.33;5.67;;;;;;;0.87;100.00;94251.00;10417991;28;20200;-64
2023/03/08 22:27:29;;;;;;;7.67;5.90;;;;;;;0.82;100.00;94256.63;10417964;28;20218;-62
2023/03/08 22:32:30;;;;;;;7.83;5.70;;;;;;;0.89;100.00;94252.47;10417710;28;20216;-64
2023/03/08 22:37:30;;;;;;;6.37;5.30;;;;;;;0.96;100.00;94254.41;10417300;28;20235;-63
2023/03/08 22:42:34;;;;;;;6.83;4.87;;;;;;;0.86;100.00;94236.50;10417563;28;20258;-64
2023/03/08 22:47:34;;;;;;;8.17;5.27;;;;;;;0.78;100.00;94239.06;10416975;28;20208;-65
2023/03/08 22:52:34;;;;;;;7.43;5.03;;;;;;;0.61;100.00;94235.63;10417373;28;20576;-63
2023/03/08 22:57:35;;;;;;;5.63;4.43;;;;;;;0.67;100.00;94228.09;10416392;28;20905;-65
2023/03/08 23:02:36;;;;;;;6.17;4.77;;;;;;;0.58;100.00;94229.00;10408040;28;20218;-64
2023/03/08 23:07:36;;;;;;;7.43;4.20;;;;;;;0.63;100.00;94218.25;10375153;28;20212;-64
2023/03/08 23:12:37;;;;;;;5.73;4.37;;;;;;;0.59;100.00;94225.47;10374723;28;20248;-65